sensor_id;sensor_type;location;lat;lon;timestamp;P1;durP1;ratioP1;P2;durP2;ratioP2
25439;SDS011;13365;52.208;5.488;2024-02-21T00:00:49;10.15;;;3.40;;
25439;SDS011;13365;52.208;5.488;2024-02-21T00:03:14;13.63;;;3.55;;
25439;SDS011;13365;52.208;5.488;2024-02-21T00:05:40;17.20;;;3.60;;
25439;SDS011;13365;52.208;5.488;2024-02-21T00:08:06;16.13;;;3.75;;
25439;SDS011;13365;52.208;5.488;2024-02-21T00:10:31;15.25;;;3.10;;
25439;SDS011;13365;52.208;5.488;2024-02-21T00:12:58;14.77;;;3.47;;
25439;SDS011;13365;52.208;5.488;2024-02-21T00:15:24;12.30;;;3.25;;
25439;SDS011;13365;52.208;5.488;2024-02-21T00:17:50;10.98;;;3.17;;
25439;SDS011;13365;52.208;5.488;2024-02-21T00:20:16;16.77;;;3.97;;
25439;SDS011;13365;52.208;5.488;2024-02-21T00:22:42;12.43;;;3.08;;
25439;SDS011;13365;52.208;5.488;2024-02-21T00:25:08;13.40;;;3.25;;
25439;SDS011;13365;52.208;5.488;2024-02-21T00:27:34;12.75;;;3.00;;
25439;SDS011;13365;52.208;5.488;2024-02-21T00:29:59;14.75;;;3.03;;
25439;SDS011;13365;52.208;5.488;2024-02-21T00:32:25;14.73;;;2.83;;
25439;SDS011;13365;52.208;5.488;2024-02-21T00:34:50;13.85;;;3.00;;
25439;SDS011;13365;52.208;5.488;2024-02-21T00:37:16;13.52;;;3.35;;
25439;SDS011;13365;52.208;5.488;2024-02-21T00:39:41;12.45;;;2.38;;
25439;SDS011;13365;52.208;5.488;2024-02-21T00:42:07;16.05;;;3.05;;
25439;SDS011;13365;52.208;5.488;2024-02-21T00:44:33;13.32;;;3.17;;
25439;SDS011;13365;52.208;5.488;2024-02-21T00:46:58;13.25;;;2.85;;
25439;SDS011;13365;52.208;5.488;2024-02-21T00:49:25;15.40;;;3.47;;
25439;SDS011;13365;52.208;5.488;2024-02-21T00:51:51;13.98;;;2.75;;
25439;SDS011;13365;52.208;5.488;2024-02-21T00:54:16;9.35;;;2.67;;
25439;SDS011;13365;52.208;5.488;2024-02-21T00:56:42;17.30;;;3.08;;
25439;SDS011;13365;52.208;5.488;2024-02-21T00:59:08;16.27;;;2.90;;
25439;SDS011;13365;52.208;5.488;2024-02-21T01:01:33;21.42;;;4.20;;
25439;SDS011;13365;52.208;5.488;2024-02-21T01:03:59;14.32;;;2.88;;
25439;SDS011;13365;52.208;5.488;2024-02-21T01:06:25;16.63;;;3.63;;
25439;SDS011;13365;52.208;5.488;2024-02-21T01:08:50;19.15;;;3.58;;
25439;SDS011;13365;52.208;5.488;2024-02-21T01:11:16;13.00;;;2.67;;
25439;SDS011;13365;52.208;5.488;2024-02-21T01:13:42;12.32;;;3.47;;
25439;SDS011;13365;52.208;5.488;2024-02-21T01:16:08;12.75;;;3.08;;
25439;SDS011;13365;52.208;5.488;2024-02-21T01:18:33;14.02;;;3.65;;
25439;SDS011;13365;52.208;5.488;2024-02-21T01:20:59;17.77;;;4.22;;
25439;SDS011;13365;52.208;5.488;2024-02-21T01:23:25;14.93;;;3.85;;
25439;SDS011;13365;52.208;5.488;2024-02-21T01:25:51;12.30;;;4.25;;
25439;SDS011;13365;52.208;5.488;2024-02-21T01:28:18;19.25;;;4.22;;
25439;SDS011;13365;52.208;5.488;2024-02-21T01:30:43;19.88;;;4.65;;
25439;SDS011;13365;52.208;5.488;2024-02-21T01:33:09;21.92;;;4.75;;
25439;SDS011;13365;52.208;5.488;2024-02-21T01:35:35;16.20;;;4.72;;
25439;SDS011;13365;52.208;5.488;2024-02-21T01:38:02;16.67;;;4.40;;
25439;SDS011;13365;52.208;5.488;2024-02-21T01:40:27;18.02;;;4.85;;
25439;SDS011;13365;52.208;5.488;2024-02-21T01:42:54;18.65;;;5.47;;
25439;SDS011;13365;52.208;5.488;2024-02-21T01:45:20;12.48;;;4.85;;
25439;SDS011;13365;52.208;5.488;2024-02-21T01:47:46;14.68;;;5.50;;
25439;SDS011;13365;52.208;5.488;2024-02-21T01:50:13;14.93;;;4.95;;
25439;SDS011;13365;52.208;5.488;2024-02-21T01:52:41;12.90;;;5.00;;
25439;SDS011;13365;52.208;5.488;2024-02-21T01:55:11;17.85;;;5.60;;
25439;SDS011;13365;52.208;5.488;2024-02-21T01:57:38;13.95;;;5.03;;
25439;SDS011;13365;52.208;5.488;2024-02-21T02:00:08;18.85;;;4.65;;
25439;SDS011;13365;52.208;5.488;2024-02-21T02:02:35;15.57;;;4.80;;
25439;SDS011;13365;52.208;5.488;2024-02-21T02:05:03;14.57;;;4.75;;
25439;SDS011;13365;52.208;5.488;2024-02-21T02:07:31;14.52;;;4.45;;
25439;SDS011;13365;52.208;5.488;2024-02-21T02:09:56;15.70;;;4.35;;
25439;SDS011;13365;52.208;5.488;2024-02-21T02:12:22;14.18;;;4.65;;
25439;SDS011;13365;52.208;5.488;2024-02-21T02:14:57;17.08;;;5.30;;
25439;SDS011;13365;52.208;5.488;2024-02-21T02:17:29;18.73;;;4.70;;
25439;SDS011;13365;52.208;5.488;2024-02-21T02:19:55;15.93;;;5.28;;
25439;SDS011;13365;52.208;5.488;2024-02-21T02:22:22;14.05;;;4.18;;
25439;SDS011;13365;52.208;5.488;2024-02-21T02:24:52;11.38;;;4.22;;
25439;SDS011;13365;52.208;5.488;2024-02-21T02:27:20;15.05;;;4.65;;
25439;SDS011;13365;52.208;5.488;2024-02-21T02:29:46;18.20;;;4.97;;
25439;SDS011;13365;52.208;5.488;2024-02-21T02:32:11;17.17;;;4.95;;
25439;SDS011;13365;52.208;5.488;2024-02-21T02:34:37;17.70;;;5.28;;
25439;SDS011;13365;52.208;5.488;2024-02-21T02:37:03;16.20;;;4.15;;
25439;SDS011;13365;52.208;5.488;2024-02-21T02:39:28;15.43;;;4.47;;
25439;SDS011;13365;52.208;5.488;2024-02-21T02:41:54;16.70;;;5.80;;
25439;SDS011;13365;52.208;5.488;2024-02-21T02:44:19;14.95;;;4.55;;
25439;SDS011;13365;52.208;5.488;2024-02-21T02:46:45;14.98;;;5.35;;
25439;SDS011;13365;52.208;5.488;2024-02-21T02:49:10;19.30;;;4.82;;
25439;SDS011;13365;52.208;5.488;2024-02-21T02:51:36;16.08;;;4.60;;
25439;SDS011;13365;52.208;5.488;2024-02-21T02:54:02;15.95;;;4.90;;
25439;SDS011;13365;52.208;5.488;2024-02-21T02:56:28;15.15;;;4.82;;
25439;SDS011;13365;52.208;5.488;2024-02-21T02:58:53;12.25;;;5.20;;
25439;SDS011;13365;52.208;5.488;2024-02-21T03:01:19;12.30;;;4.88;;
25439;SDS011;13365;52.208;5.488;2024-02-21T03:03:44;11.98;;;5.00;;
25439;SDS011;13365;52.208;5.488;2024-02-21T03:06:12;20.70;;;4.80;;
25439;SDS011;13365;52.208;5.488;2024-02-21T03:08:37;10.57;;;4.20;;
25439;SDS011;13365;52.208;5.488;2024-02-21T03:11:04;19.98;;;5.45;;
25439;SDS011;13365;52.208;5.488;2024-02-21T03:13:30;18.25;;;4.22;;
25439;SDS011;13365;52.208;5.488;2024-02-21T03:15:56;14.57;;;5.20;;
25439;SDS011;13365;52.208;5.488;2024-02-21T03:18:21;12.43;;;4.80;;
25439;SDS011;13365;52.208;5.488;2024-02-21T03:20:47;16.65;;;5.00;;
25439;SDS011;13365;52.208;5.488;2024-02-21T03:23:13;20.05;;;5.30;;
25439;SDS011;13365;52.208;5.488;2024-02-21T03:25:38;16.85;;;5.32;;
25439;SDS011;13365;52.208;5.488;2024-02-21T03:28:04;17.90;;;5.53;;
25439;SDS011;13365;52.208;5.488;2024-02-21T03:30:30;15.88;;;6.20;;
25439;SDS011;13365;52.208;5.488;2024-02-21T03:32:55;13.38;;;5.28;;
25439;SDS011;13365;52.208;5.488;2024-02-21T03:35:21;15.48;;;5.38;;
25439;SDS011;13365;52.208;5.488;2024-02-21T03:37:46;15.50;;;5.38;;
25439;SDS011;13365;52.208;5.488;2024-02-21T03:40:12;22.08;;;5.05;;
25439;SDS011;13365;52.208;5.488;2024-02-21T03:42:37;14.32;;;5.85;;
25439;SDS011;13365;52.208;5.488;2024-02-21T03:45:03;25.38;;;7.22;;
25439;SDS011;13365;52.208;5.488;2024-02-21T03:47:29;15.88;;;5.70;;
25439;SDS011;13365;52.208;5.488;2024-02-21T03:49:55;16.00;;;6.07;;
25439;SDS011;13365;52.208;5.488;2024-02-21T03:52:21;14.48;;;5.55;;
25439;SDS011;13365;52.208;5.488;2024-02-21T03:54:47;15.13;;;5.68;;
25439;SDS011;13365;52.208;5.488;2024-02-21T03:57:12;14.85;;;5.47;;
25439;SDS011;13365;52.208;5.488;2024-02-21T03:59:38;16.98;;;5.85;;
25439;SDS011;13365;52.208;5.488;2024-02-21T04:02:05;24.77;;;7.35;;
25439;SDS011;13365;52.208;5.488;2024-02-21T04:04:33;15.20;;;6.47;;
25439;SDS011;13365;52.208;5.488;2024-02-21T04:06:59;16.52;;;5.63;;
25439;SDS011;13365;52.208;5.488;2024-02-21T04:09:25;11.75;;;5.70;;
25439;SDS011;13365;52.208;5.488;2024-02-21T04:11:51;14.38;;;5.93;;
25439;SDS011;13365;52.208;5.488;2024-02-21T04:14:16;15.80;;;6.82;;
25439;SDS011;13365;52.208;5.488;2024-02-21T04:16:42;14.73;;;6.60;;
25439;SDS011;13365;52.208;5.488;2024-02-21T04:19:08;10.77;;;5.50;;
25439;SDS011;13365;52.208;5.488;2024-02-21T04:21:34;18.27;;;6.75;;
25439;SDS011;13365;52.208;5.488;2024-02-21T04:23:59;15.45;;;6.28;;
25439;SDS011;13365;52.208;5.488;2024-02-21T04:26:26;13.70;;;5.40;;
25439;SDS011;13365;52.208;5.488;2024-02-21T04:28:52;12.75;;;5.10;;
25439;SDS011;13365;52.208;5.488;2024-02-21T04:31:18;13.52;;;5.32;;
25439;SDS011;13365;52.208;5.488;2024-02-21T04:33:43;12.05;;;5.35;;
25439;SDS011;13365;52.208;5.488;2024-02-21T04:36:09;17.02;;;5.30;;
25439;SDS011;13365;52.208;5.488;2024-02-21T04:38:35;15.80;;;5.78;;
25439;SDS011;13365;52.208;5.488;2024-02-21T04:41:00;15.95;;;5.70;;
25439;SDS011;13365;52.208;5.488;2024-02-21T04:43:26;16.15;;;5.65;;
25439;SDS011;13365;52.208;5.488;2024-02-21T04:45:51;17.88;;;6.18;;
25439;SDS011;13365;52.208;5.488;2024-02-21T04:48:18;13.70;;;5.78;;
25439;SDS011;13365;52.208;5.488;2024-02-21T04:50:44;15.40;;;5.28;;
25439;SDS011;13365;52.208;5.488;2024-02-21T04:53:09;12.77;;;5.75;;
25439;SDS011;13365;52.208;5.488;2024-02-21T04:55:35;14.40;;;6.13;;
25439;SDS011;13365;52.208;5.488;2024-02-21T04:58:00;15.02;;;5.65;;
25439;SDS011;13365;52.208;5.488;2024-02-21T05:00:27;16.92;;;5.65;;
25439;SDS011;13365;52.208;5.488;2024-02-21T05:02:53;17.58;;;6.30;;
25439;SDS011;13365;52.208;5.488;2024-02-21T05:05:18;16.90;;;6.18;;
25439;SDS011;13365;52.208;5.488;2024-02-21T05:07:44;12.70;;;5.10;;
25439;SDS011;13365;52.208;5.488;2024-02-21T05:10:10;12.82;;;6.00;;
25439;SDS011;13365;52.208;5.488;2024-02-21T05:12:35;13.30;;;5.18;;
25439;SDS011;13365;52.208;5.488;2024-02-21T05:15:01;16.38;;;5.47;;
25439;SDS011;13365;52.208;5.488;2024-02-21T05:17:28;13.75;;;5.90;;
25439;SDS011;13365;52.208;5.488;2024-02-21T05:19:53;13.93;;;6.18;;
25439;SDS011;13365;52.208;5.488;2024-02-21T05:22:19;12.95;;;6.10;;
25439;SDS011;13365;52.208;5.488;2024-02-21T05:24:45;14.10;;;5.75;;
25439;SDS011;13365;52.208;5.488;2024-02-21T05:27:10;16.35;;;6.53;;
25439;SDS011;13365;52.208;5.488;2024-02-21T05:29:36;13.23;;;6.72;;
25439;SDS011;13365;52.208;5.488;2024-02-21T05:32:01;19.05;;;6.85;;
25439;SDS011;13365;52.208;5.488;2024-02-21T05:34:27;15.57;;;6.65;;
25439;SDS011;13365;52.208;5.488;2024-02-21T05:36:53;14.60;;;6.95;;
25439;SDS011;13365;52.208;5.488;2024-02-21T05:39:18;18.70;;;7.28;;
25439;SDS011;13365;52.208;5.488;2024-02-21T05:41:44;14.77;;;6.57;;
25439;SDS011;13365;52.208;5.488;2024-02-21T05:44:10;11.85;;;6.15;;
25439;SDS011;13365;52.208;5.488;2024-02-21T05:46:37;11.13;;;6.20;;
25439;SDS011;13365;52.208;5.488;2024-02-21T05:49:02;14.02;;;6.63;;
25439;SDS011;13365;52.208;5.488;2024-02-21T05:51:29;17.17;;;6.80;;
25439;SDS011;13365;52.208;5.488;2024-02-21T05:54:00;11.52;;;6.35;;
25439;SDS011;13365;52.208;5.488;2024-02-21T05:56:26;14.60;;;6.63;;
25439;SDS011;13365;52.208;5.488;2024-02-21T05:58:51;14.55;;;7.00;;
25439;SDS011;13365;52.208;5.488;2024-02-21T06:01:17;16.77;;;6.35;;
25439;SDS011;13365;52.208;5.488;2024-02-21T06:03:43;14.50;;;6.63;;
25439;SDS011;13365;52.208;5.488;2024-02-21T06:06:08;16.95;;;6.80;;
25439;SDS011;13365;52.208;5.488;2024-02-21T06:08:34;13.50;;;6.80;;
25439;SDS011;13365;52.208;5.488;2024-02-21T06:10:59;16.13;;;6.38;;
25439;SDS011;13365;52.208;5.488;2024-02-21T06:13:25;15.30;;;7.05;;
25439;SDS011;13365;52.208;5.488;2024-02-21T06:15:51;19.58;;;6.68;;
25439;SDS011;13365;52.208;5.488;2024-02-21T06:18:17;16.85;;;7.20;;
25439;SDS011;13365;52.208;5.488;2024-02-21T06:20:43;18.27;;;7.15;;
25439;SDS011;13365;52.208;5.488;2024-02-21T06:23:09;14.20;;;6.78;;
25439;SDS011;13365;52.208;5.488;2024-02-21T06:25:36;22.05;;;7.60;;
25439;SDS011;13365;52.208;5.488;2024-02-21T06:28:02;16.23;;;7.65;;
25439;SDS011;13365;52.208;5.488;2024-02-21T06:30:28;12.95;;;6.90;;
25439;SDS011;13365;52.208;5.488;2024-02-21T06:32:54;19.13;;;7.40;;
25439;SDS011;13365;52.208;5.488;2024-02-21T06:35:22;16.08;;;8.48;;
25439;SDS011;13365;52.208;5.488;2024-02-21T06:37:51;19.95;;;8.05;;
25439;SDS011;13365;52.208;5.488;2024-02-21T06:40:17;15.82;;;7.97;;
25439;SDS011;13365;52.208;5.488;2024-02-21T06:42:43;18.23;;;8.10;;
25439;SDS011;13365;52.208;5.488;2024-02-21T06:45:08;18.50;;;8.95;;
25439;SDS011;13365;52.208;5.488;2024-02-21T06:47:34;21.88;;;8.60;;
25439;SDS011;13365;52.208;5.488;2024-02-21T06:50:00;17.20;;;8.13;;
25439;SDS011;13365;52.208;5.488;2024-02-21T06:52:25;13.90;;;7.75;;
25439;SDS011;13365;52.208;5.488;2024-02-21T06:54:51;14.50;;;8.25;;
25439;SDS011;13365;52.208;5.488;2024-02-21T06:57:17;25.00;;;9.13;;
25439;SDS011;13365;52.208;5.488;2024-02-21T06:59:42;21.92;;;11.95;;
25439;SDS011;13365;52.208;5.488;2024-02-21T07:02:08;29.20;;;11.95;;
25439;SDS011;13365;52.208;5.488;2024-02-21T07:04:34;24.40;;;11.40;;
25439;SDS011;13365;52.208;5.488;2024-02-21T07:07:00;24.23;;;11.02;;
25439;SDS011;13365;52.208;5.488;2024-02-21T07:09:25;26.58;;;12.07;;
25439;SDS011;13365;52.208;5.488;2024-02-21T07:11:51;28.60;;;13.05;;
25439;SDS011;13365;52.208;5.488;2024-02-21T07:14:17;27.92;;;13.10;;
25439;SDS011;13365;52.208;5.488;2024-02-21T07:16:43;26.13;;;12.63;;
25439;SDS011;13365;52.208;5.488;2024-02-21T07:19:09;20.52;;;11.88;;
25439;SDS011;13365;52.208;5.488;2024-02-21T07:21:34;26.58;;;12.88;;
25439;SDS011;13365;52.208;5.488;2024-02-21T07:24:04;24.17;;;11.45;;
25439;SDS011;13365;52.208;5.488;2024-02-21T07:26:31;28.88;;;12.38;;
25439;SDS011;13365;52.208;5.488;2024-02-21T07:28:56;27.05;;;12.65;;
25439;SDS011;13365;52.208;5.488;2024-02-21T07:31:22;28.00;;;12.98;;
25439;SDS011;13365;52.208;5.488;2024-02-21T07:33:47;24.80;;;12.80;;
25439;SDS011;13365;52.208;5.488;2024-02-21T07:36:14;30.63;;;12.98;;
25439;SDS011;13365;52.208;5.488;2024-02-21T07:38:42;26.88;;;12.70;;
25439;SDS011;13365;52.208;5.488;2024-02-21T07:41:07;26.52;;;12.73;;
25439;SDS011;13365;52.208;5.488;2024-02-21T07:43:33;33.38;;;12.63;;
25439;SDS011;13365;52.208;5.488;2024-02-21T07:45:58;28.15;;;12.02;;
25439;SDS011;13365;52.208;5.488;2024-02-21T07:48:24;26.30;;;12.75;;
25439;SDS011;13365;52.208;5.488;2024-02-21T07:50:51;25.60;;;12.20;;
25439;SDS011;13365;52.208;5.488;2024-02-21T07:53:17;28.65;;;12.38;;
25439;SDS011;13365;52.208;5.488;2024-02-21T07:55:43;22.55;;;11.80;;
25439;SDS011;13365;52.208;5.488;2024-02-21T07:58:09;22.40;;;11.77;;
25439;SDS011;13365;52.208;5.488;2024-02-21T08:00:35;26.98;;;11.98;;
25439;SDS011;13365;52.208;5.488;2024-02-21T08:03:00;27.90;;;11.10;;
25439;SDS011;13365;52.208;5.488;2024-02-21T08:05:26;21.45;;;10.20;;
25439;SDS011;13365;52.208;5.488;2024-02-21T08:07:51;18.17;;;9.30;;
25439;SDS011;13365;52.208;5.488;2024-02-21T08:10:17;27.45;;;9.73;;
25439;SDS011;13365;52.208;5.488;2024-02-21T08:12:43;20.70;;;9.23;;
25439;SDS011;13365;52.208;5.488;2024-02-21T08:15:08;19.75;;;9.10;;
25439;SDS011;13365;52.208;5.488;2024-02-21T08:17:35;19.13;;;8.25;;
25439;SDS011;13365;52.208;5.488;2024-02-21T08:20:01;19.52;;;9.23;;
25439;SDS011;13365;52.208;5.488;2024-02-21T08:22:29;20.63;;;8.93;;
25439;SDS011;13365;52.208;5.488;2024-02-21T08:24:55;22.95;;;9.20;;
25439;SDS011;13365;52.208;5.488;2024-02-21T08:27:20;16.80;;;8.90;;
25439;SDS011;13365;52.208;5.488;2024-02-21T08:29:46;16.48;;;8.88;;
25439;SDS011;13365;52.208;5.488;2024-02-21T08:32:13;19.15;;;8.93;;
25439;SDS011;13365;52.208;5.488;2024-02-21T08:34:38;17.90;;;9.43;;
25439;SDS011;13365;52.208;5.488;2024-02-21T08:37:04;16.98;;;8.02;;
25439;SDS011;13365;52.208;5.488;2024-02-21T08:39:29;19.10;;;9.13;;
25439;SDS011;13365;52.208;5.488;2024-02-21T08:41:55;21.33;;;9.18;;
25439;SDS011;13365;52.208;5.488;2024-02-21T08:44:22;16.80;;;8.70;;
25439;SDS011;13365;52.208;5.488;2024-02-21T08:46:50;19.73;;;8.32;;
25439;SDS011;13365;52.208;5.488;2024-02-21T08:49:16;19.25;;;9.30;;
25439;SDS011;13365;52.208;5.488;2024-02-21T08:51:42;19.40;;;9.88;;
25439;SDS011;13365;52.208;5.488;2024-02-21T08:54:08;22.67;;;8.80;;
25439;SDS011;13365;52.208;5.488;2024-02-21T08:56:33;22.25;;;10.38;;
25439;SDS011;13365;52.208;5.488;2024-02-21T08:59:00;20.70;;;9.65;;
25439;SDS011;13365;52.208;5.488;2024-02-21T09:01:26;17.83;;;9.07;;
25439;SDS011;13365;52.208;5.488;2024-02-21T09:03:52;20.27;;;9.90;;
25439;SDS011;13365;52.208;5.488;2024-02-21T09:06:18;20.17;;;9.07;;
25439;SDS011;13365;52.208;5.488;2024-02-21T09:08:47;23.50;;;9.75;;
25439;SDS011;13365;52.208;5.488;2024-02-21T09:11:13;19.60;;;8.85;;
25439;SDS011;13365;52.208;5.488;2024-02-21T09:13:39;23.90;;;9.45;;
25439;SDS011;13365;52.208;5.488;2024-02-21T09:16:05;19.75;;;9.07;;
25439;SDS011;13365;52.208;5.488;2024-02-21T09:18:31;19.20;;;9.45;;
25439;SDS011;13365;52.208;5.488;2024-02-21T09:20:56;24.83;;;9.55;;
25439;SDS011;13365;52.208;5.488;2024-02-21T09:23:25;20.15;;;9.32;;
25439;SDS011;13365;52.208;5.488;2024-02-21T09:25:51;18.02;;;8.48;;
25439;SDS011;13365;52.208;5.488;2024-02-21T09:28:16;19.30;;;8.48;;
25439;SDS011;13365;52.208;5.488;2024-02-21T09:30:42;19.55;;;8.40;;
25439;SDS011;13365;52.208;5.488;2024-02-21T09:33:08;15.98;;;7.15;;
25439;SDS011;13365;52.208;5.488;2024-02-21T09:35:33;14.75;;;7.90;;
25439;SDS011;13365;52.208;5.488;2024-02-21T09:37:59;14.00;;;7.55;;
25439;SDS011;13365;52.208;5.488;2024-02-21T09:40:25;17.33;;;7.68;;
25439;SDS011;13365;52.208;5.488;2024-02-21T09:42:53;14.85;;;7.85;;
25439;SDS011;13365;52.208;5.488;2024-02-21T09:45:32;13.70;;;7.20;;
25439;SDS011;13365;52.208;5.488;2024-02-21T09:51:01;16.90;;;7.63;;
25439;SDS011;13365;52.208;5.488;2024-02-21T09:53:27;16.55;;;7.13;;
25439;SDS011;13365;52.208;5.488;2024-02-21T09:55:55;12.93;;;6.53;;
25439;SDS011;13365;52.208;5.488;2024-02-21T09:58:23;14.32;;;6.82;;
25439;SDS011;13365;52.208;5.488;2024-02-21T10:00:52;17.23;;;8.25;;
25439;SDS011;13365;52.208;5.488;2024-02-21T10:03:18;14.18;;;6.65;;
25439;SDS011;13365;52.208;5.488;2024-02-21T10:05:46;15.48;;;7.00;;
25439;SDS011;13365;52.208;5.488;2024-02-21T10:08:15;19.15;;;6.78;;
25439;SDS011;13365;52.208;5.488;2024-02-21T10:10:44;12.80;;;6.03;;
25439;SDS011;13365;52.208;5.488;2024-02-21T10:13:10;17.20;;;6.50;;
25439;SDS011;13365;52.208;5.488;2024-02-21T10:16:00;15.93;;;5.70;;
25439;SDS011;13365;52.208;5.488;2024-02-21T10:18:34;13.32;;;6.38;;
25439;SDS011;13365;52.208;5.488;2024-02-21T10:21:04;19.60;;;6.65;;
25439;SDS011;13365;52.208;5.488;2024-02-21T10:23:44;14.38;;;5.47;;
25439;SDS011;13365;52.208;5.488;2024-02-21T10:26:10;14.00;;;6.00;;
25439;SDS011;13365;52.208;5.488;2024-02-21T10:28:37;16.60;;;6.28;;
25439;SDS011;13365;52.208;5.488;2024-02-21T10:31:07;9.98;;;5.70;;
25439;SDS011;13365;52.208;5.488;2024-02-21T10:33:34;12.02;;;5.55;;
25439;SDS011;13365;52.208;5.488;2024-02-21T10:36:09;14.77;;;5.28;;
25439;SDS011;13365;52.208;5.488;2024-02-21T10:38:36;11.82;;;5.10;;
25439;SDS011;13365;52.208;5.488;2024-02-21T10:41:03;15.13;;;5.63;;
25439;SDS011;13365;52.208;5.488;2024-02-21T10:43:38;12.43;;;5.20;;
25439;SDS011;13365;52.208;5.488;2024-02-21T10:46:10;12.63;;;5.13;;
25439;SDS011;13365;52.208;5.488;2024-02-21T10:48:46;9.25;;;4.97;;
25439;SDS011;13365;52.208;5.488;2024-02-21T10:51:14;9.35;;;4.68;;
25439;SDS011;13365;52.208;5.488;2024-02-21T10:56:38;12.98;;;4.35;;
25439;SDS011;13365;52.208;5.488;2024-02-21T10:59:06;12.18;;;4.63;;
25439;SDS011;13365;52.208;5.488;2024-02-21T11:01:33;11.00;;;4.75;;
25439;SDS011;13365;52.208;5.488;2024-02-21T11:04:07;8.75;;;4.65;;
25439;SDS011;13365;52.208;5.488;2024-02-21T11:06:37;11.15;;;4.78;;
25439;SDS011;13365;52.208;5.488;2024-02-21T11:09:05;11.70;;;4.32;;
25439;SDS011;13365;52.208;5.488;2024-02-21T11:11:35;8.05;;;3.90;;
25439;SDS011;13365;52.208;5.488;2024-02-21T11:14:09;8.07;;;4.03;;
25439;SDS011;13365;52.208;5.488;2024-02-21T11:16:36;7.85;;;4.10;;
25439;SDS011;13365;52.208;5.488;2024-02-21T11:19:09;9.77;;;4.45;;
25439;SDS011;13365;52.208;5.488;2024-02-21T11:21:36;7.55;;;4.38;;
25439;SDS011;13365;52.208;5.488;2024-02-21T11:24:05;10.50;;;4.93;;
25439;SDS011;13365;52.208;5.488;2024-02-21T11:26:31;10.73;;;5.38;;
25439;SDS011;13365;52.208;5.488;2024-02-21T11:28:58;10.98;;;5.28;;
25439;SDS011;13365;52.208;5.488;2024-02-21T11:31:40;10.98;;;5.28;;
25439;SDS011;13365;52.208;5.488;2024-02-21T11:34:10;9.55;;;4.55;;
25439;SDS011;13365;52.208;5.488;2024-02-21T11:36:48;10.80;;;5.22;;
25439;SDS011;13365;52.208;5.488;2024-02-21T11:39:19;12.43;;;5.57;;
25439;SDS011;13365;52.208;5.488;2024-02-21T11:41:47;13.00;;;5.20;;
25439;SDS011;13365;52.208;5.488;2024-02-21T11:44:13;14.32;;;5.78;;
25439;SDS011;13365;52.208;5.488;2024-02-21T11:46:38;11.50;;;5.18;;
25439;SDS011;13365;52.208;5.488;2024-02-21T11:49:04;12.65;;;5.43;;
25439;SDS011;13365;52.208;5.488;2024-02-21T11:51:31;10.00;;;5.60;;
25439;SDS011;13365;52.208;5.488;2024-02-21T11:53:56;10.95;;;5.50;;
25439;SDS011;13365;52.208;5.488;2024-02-21T11:56:22;11.98;;;6.97;;
25439;SDS011;13365;52.208;5.488;2024-02-21T11:58:48;12.93;;;6.22;;
25439;SDS011;13365;52.208;5.488;2024-02-21T12:01:14;10.65;;;5.90;;
25439;SDS011;13365;52.208;5.488;2024-02-21T12:03:40;18.17;;;6.40;;
25439;SDS011;13365;52.208;5.488;2024-02-21T12:06:07;13.95;;;6.40;;
25439;SDS011;13365;52.208;5.488;2024-02-21T12:08:42;15.40;;;6.50;;
25439;SDS011;13365;52.208;5.488;2024-02-21T12:11:19;11.32;;;6.18;;
25439;SDS011;13365;52.208;5.488;2024-02-21T12:13:46;9.50;;;5.93;;
25439;SDS011;13365;52.208;5.488;2024-02-21T12:16:12;10.80;;;6.30;;
25439;SDS011;13365;52.208;5.488;2024-02-21T12:18:41;11.93;;;6.05;;
25439;SDS011;13365;52.208;5.488;2024-02-21T12:21:06;12.18;;;6.05;;
25439;SDS011;13365;52.208;5.488;2024-02-21T12:23:33;9.60;;;5.55;;
25439;SDS011;13365;52.208;5.488;2024-02-21T12:25:59;13.10;;;6.05;;
25439;SDS011;13365;52.208;5.488;2024-02-21T12:28:24;13.38;;;6.10;;
25439;SDS011;13365;52.208;5.488;2024-02-21T12:30:51;17.27;;;5.85;;
25439;SDS011;13365;52.208;5.488;2024-02-21T12:33:17;10.93;;;5.72;;
25439;SDS011;13365;52.208;5.488;2024-02-21T12:35:43;8.38;;;5.75;;
25439;SDS011;13365;52.208;5.488;2024-02-21T12:38:09;9.20;;;5.00;;
25439;SDS011;13365;52.208;5.488;2024-02-21T12:40:34;13.77;;;6.45;;
25439;SDS011;13365;52.208;5.488;2024-02-21T12:43:00;13.52;;;5.78;;
25439;SDS011;13365;52.208;5.488;2024-02-21T12:45:28;12.32;;;5.82;;
25439;SDS011;13365;52.208;5.488;2024-02-21T12:47:53;9.63;;;5.05;;
25439;SDS011;13365;52.208;5.488;2024-02-21T12:50:19;9.13;;;5.18;;
25439;SDS011;13365;52.208;5.488;2024-02-21T12:52:45;9.88;;;5.03;;
25439;SDS011;13365;52.208;5.488;2024-02-21T12:55:11;12.48;;;5.10;;
25439;SDS011;13365;52.208;5.488;2024-02-21T12:57:38;10.60;;;5.93;;
25439;SDS011;13365;52.208;5.488;2024-02-21T13:00:05;9.18;;;4.60;;
25439;SDS011;13365;52.208;5.488;2024-02-21T13:02:34;10.20;;;5.00;;
25439;SDS011;13365;52.208;5.488;2024-02-21T13:05:00;11.38;;;4.45;;
25439;SDS011;13365;52.208;5.488;2024-02-21T13:07:27;9.98;;;4.97;;
25439;SDS011;13365;52.208;5.488;2024-02-21T13:09:53;11.45;;;4.78;;
25439;SDS011;13365;52.208;5.488;2024-02-21T13:12:19;9.60;;;4.40;;
25439;SDS011;13365;52.208;5.488;2024-02-21T13:14:45;10.50;;;4.63;;
25439;SDS011;13365;52.208;5.488;2024-02-21T13:17:10;11.90;;;5.30;;
25439;SDS011;13365;52.208;5.488;2024-02-21T13:19:36;10.70;;;4.68;;
25439;SDS011;13365;52.208;5.488;2024-02-21T13:22:01;12.88;;;5.15;;
25439;SDS011;13365;52.208;5.488;2024-02-21T13:24:27;11.15;;;4.35;;
25439;SDS011;13365;52.208;5.488;2024-02-21T13:26:53;8.80;;;4.50;;
25439;SDS011;13365;52.208;5.488;2024-02-21T13:29:18;11.23;;;4.68;;
25439;SDS011;13365;52.208;5.488;2024-02-21T13:31:45;9.63;;;4.60;;
25439;SDS011;13365;52.208;5.488;2024-02-21T13:34:11;11.25;;;3.95;;
25439;SDS011;13365;52.208;5.488;2024-02-21T13:36:36;11.88;;;4.40;;
25439;SDS011;13365;52.208;5.488;2024-02-21T13:39:02;10.43;;;4.53;;
25439;SDS011;13365;52.208;5.488;2024-02-21T13:41:30;8.68;;;4.28;;
25439;SDS011;13365;52.208;5.488;2024-02-21T13:43:56;17.30;;;4.80;;
25439;SDS011;13365;52.208;5.488;2024-02-21T13:46:21;12.00;;;4.15;;
25439;SDS011;13365;52.208;5.488;2024-02-21T13:48:47;10.48;;;4.63;;
25439;SDS011;13365;52.208;5.488;2024-02-21T13:51:12;12.82;;;4.38;;
25439;SDS011;13365;52.208;5.488;2024-02-21T13:53:38;13.02;;;3.97;;
25439;SDS011;13365;52.208;5.488;2024-02-21T13:56:03;7.40;;;3.45;;
25439;SDS011;13365;52.208;5.488;2024-02-21T13:58:29;8.88;;;3.83;;
25439;SDS011;13365;52.208;5.488;2024-02-21T14:00:55;9.23;;;4.10;;
25439;SDS011;13365;52.208;5.488;2024-02-21T14:03:21;8.95;;;4.18;;
25439;SDS011;13365;52.208;5.488;2024-02-21T14:05:47;11.10;;;3.40;;
25439;SDS011;13365;52.208;5.488;2024-02-21T14:08:16;13.65;;;4.38;;
25439;SDS011;13365;52.208;5.488;2024-02-21T14:10:41;11.85;;;4.43;;
25439;SDS011;13365;52.208;5.488;2024-02-21T14:13:07;7.43;;;3.42;;
25439;SDS011;13365;52.208;5.488;2024-02-21T14:15:32;13.85;;;4.00;;
25439;SDS011;13365;52.208;5.488;2024-02-21T14:17:58;8.10;;;3.42;;
25439;SDS011;13365;52.208;5.488;2024-02-21T14:20:24;12.50;;;3.60;;
25439;SDS011;13365;52.208;5.488;2024-02-21T14:22:49;12.95;;;4.25;;
25439;SDS011;13365;52.208;5.488;2024-02-21T14:25:15;12.13;;;3.67;;
25439;SDS011;13365;52.208;5.488;2024-02-21T14:27:41;12.77;;;3.63;;
25439;SDS011;13365;52.208;5.488;2024-02-21T14:30:08;10.93;;;3.85;;
25439;SDS011;13365;52.208;5.488;2024-02-21T14:32:36;19.25;;;4.32;;
25439;SDS011;13365;52.208;5.488;2024-02-21T14:35:02;11.77;;;3.45;;